createdAt,value
2017-09-07T13:37:06.187Z,15868
2017-09-07T13:38:49.818Z,15868
2017-09-07T13:44:03.823Z,10823
2017-09-07T13:44:33.848Z,31285
2017-09-07T13:45:04.667Z,31738
2017-09-07T13:45:34.709Z,11840
2017-09-07T13:46:05.596Z,11675
2017-09-07T13:46:35.737Z,13757
2017-09-07T13:47:06.482Z,21375
2017-09-07T13:47:36.591Z,17908
2017-09-07T13:48:07.419Z,18595
2017-09-07T13:48:37.466Z,18032
2017-09-07T13:49:08.339Z,17245
2017-09-07T13:49:38.306Z,17055
2017-09-07T13:50:09.174Z,17365
2017-09-07T13:50:39.204Z,17132
2017-09-07T13:51:10.139Z,34875
2017-09-07T13:51:40.123Z,31650
2017-09-07T13:52:10.988Z,21932
2017-09-07T13:55:13.866Z,20578
2017-09-07T13:55:43.913Z,38705
2017-09-07T13:56:14.844Z,40560
2017-09-07T13:56:44.817Z,39797
2017-09-07T13:57:15.711Z,38567
2017-09-07T13:57:45.716Z,29995
2017-09-07T13:58:16.653Z,17730
2017-09-07T13:58:46.616Z,25200
2017-09-07T13:59:17.561Z,18235
2017-09-07T13:59:47.658Z,17248
2017-09-07T14:00:18.404Z,17423
2017-09-07T14:05:24.697Z,29987
2017-09-07T14:05:54.731Z,29848
2017-09-07T14:08:57.372Z,10990
2017-09-07T14:09:28.340Z,10135
2017-09-07T14:09:58.495Z,9388
2017-09-07T14:10:29.149Z,8938
2017-09-07T14:10:59.185Z,8587
2017-09-07T14:11:30.153Z,8180
2017-09-07T14:12:00.094Z,7603
2017-09-07T14:12:30.996Z,7255
2017-09-07T14:13:01.076Z,7050
2017-09-07T14:13:31.907Z,6760
2017-09-07T14:14:01.966Z,6377
2017-09-07T14:14:32.875Z,5948
2017-09-07T14:15:02.995Z,5567
2017-09-07T14:15:33.718Z,5160
2017-09-07T14:16:03.712Z,4868
2017-09-07T14:16:34.551Z,4920
2017-09-07T14:17:04.570Z,4915
2017-09-07T14:17:35.502Z,5070
2017-09-07T14:18:05.518Z,5275
2017-09-07T14:18:36.414Z,5450
2017-09-07T14:19:06.406Z,5600
2017-09-07T14:19:37.300Z,5743
2017-09-07T14:20:07.411Z,5767
2017-09-07T14:20:38.162Z,5600
2017-09-07T14:21:08.247Z,5282
2017-09-07T14:21:39.070Z,4780
2017-09-07T14:22:09.150Z,4393
2017-09-07T14:22:40.011Z,4127
2017-09-07T14:23:10.067Z,3910
2017-09-07T14:23:40.887Z,3590
2017-09-07T14:24:10.910Z,3182
2017-09-07T14:24:41.863Z,2813
2017-09-07T14:25:11.901Z,2510
2017-09-07T14:25:42.698Z,2255
2017-09-07T14:26:12.751Z,2068
2017-09-07T14:26:43.592Z,1915
2017-09-07T14:27:13.623Z,1823
2017-09-07T14:27:44.519Z,1845
2017-09-07T14:28:14.561Z,1963
2017-09-07T14:28:45.415Z,2168
2017-09-07T14:29:15.432Z,2410
2017-09-07T14:29:46.302Z,2645
2017-09-07T14:30:16.437Z,2818
2017-09-07T14:30:47.305Z,2963
2017-09-07T14:31:17.296Z,3130
2017-09-07T14:31:48.113Z,3370
2017-09-07T14:32:18.146Z,3865
2017-09-07T14:32:49.080Z,5057
2017-09-07T14:33:19.090Z,5305
2017-09-07T14:33:49.927Z,5545
2017-09-07T14:34:19.993Z,6030
2017-09-07T14:34:50.835Z,6548
2017-09-07T14:35:20.986Z,6962
2017-09-07T14:35:51.782Z,7222
2017-09-07T14:36:21.832Z,7450
2017-09-07T14:36:52.643Z,7618
2017-09-07T14:37:22.710Z,7700
2017-09-07T14:37:53.608Z,7678
2017-09-07T14:38:23.607Z,7620
2017-09-07T14:38:54.505Z,7477
2017-09-07T14:39:24.545Z,7215
2017-09-07T14:39:55.394Z,6917
2017-09-07T14:40:25.498Z,6887
2017-09-07T14:40:56.252Z,6827
2017-09-07T14:41:26.329Z,8542
2017-09-07T14:41:57.162Z,6175
2017-09-07T14:42:27.258Z,5560
2017-09-07T14:42:58.114Z,5297
2017-09-07T14:43:28.168Z,5430
2017-09-07T14:43:58.965Z,5842
2017-09-07T14:44:28.999Z,5430
2017-09-07T14:44:59.868Z,5205
2017-09-07T14:45:30.017Z,4972
2017-09-07T14:46:00.776Z,4918
2017-09-07T14:46:30.811Z,4982
2017-09-07T14:47:01.772Z,5102
2017-09-07T14:47:31.799Z,5213
2017-09-07T14:48:02.673Z,5375
2017-09-07T14:48:32.641Z,5550
2017-09-07T14:49:03.548Z,5732
2017-09-07T14:49:33.584Z,5875
2017-09-07T14:50:04.459Z,6050
2017-09-07T14:50:34.554Z,6335
2017-09-07T14:51:05.301Z,6825
2017-09-07T14:51:35.347Z,7105
2017-09-07T14:52:06.277Z,10082
2017-09-07T14:52:36.270Z,14285
2017-09-07T14:53:07.178Z,19915
2017-09-07T14:53:37.163Z,11617
2017-09-07T14:54:08.092Z,17795
2017-09-07T14:54:38.117Z,16717
2017-09-07T14:55:08.918Z,8020
2017-09-07T14:55:39.072Z,7635
2017-09-07T14:56:09.827Z,7435
2017-09-07T14:56:39.969Z,7378
2017-09-07T14:57:09.974Z,7405
2017-09-07T14:57:40.091Z,7340
2017-09-07T14:58:10.065Z,7315
2017-09-07T14:58:40.139Z,7498
2017-09-07T14:59:10.145Z,8042
2017-09-07T14:59:40.122Z,8510
2017-09-07T15:00:10.151Z,8203
2017-09-07T15:00:40.249Z,8147
2017-09-07T15:01:10.288Z,7903
2017-09-07T15:01:40.263Z,7590
2017-09-07T15:02:10.347Z,7280
2017-09-07T15:02:40.427Z,6988
2017-09-07T15:03:10.341Z,6695
2017-09-07T15:03:40.419Z,6418
2017-09-07T15:04:10.446Z,6145
2017-09-07T15:04:40.438Z,5887
2017-09-07T15:05:10.533Z,5570
2017-09-07T15:05:40.642Z,5350
2017-09-07T15:06:10.591Z,5215
2017-09-07T15:06:40.625Z,5087
2017-09-07T15:07:10.637Z,4950
2017-09-07T15:07:40.684Z,4780
2017-09-07T15:08:10.642Z,4650
2017-09-07T15:08:40.680Z,4528
2017-09-07T15:09:10.765Z,4385
2017-09-07T15:09:40.749Z,4225
2017-09-07T15:10:10.770Z,4048
2017-09-07T15:10:41.027Z,3883
2017-09-07T15:11:10.897Z,3748
2017-09-07T15:11:40.855Z,3637
2017-09-07T15:12:10.961Z,3560
2017-09-07T15:12:41.004Z,3548
2017-09-07T15:13:10.976Z,3600
2017-09-07T15:13:41.003Z,3760
2017-09-07T15:14:11.022Z,4040
2017-09-07T15:14:41.057Z,6442
2017-09-07T15:15:11.074Z,7322
2017-09-07T15:15:41.227Z,4033
2017-09-07T15:16:11.134Z,3892
2017-09-07T15:16:41.250Z,4010
2017-09-07T15:17:11.255Z,4112
2017-09-07T15:17:41.290Z,4295
2017-09-07T15:18:11.261Z,4450
2017-09-07T15:18:41.350Z,4515
2017-09-07T15:19:11.374Z,4530
2017-09-07T15:19:41.418Z,4483
2017-09-07T15:20:11.439Z,5132
2017-09-07T15:20:41.526Z,4315
2017-09-07T15:21:11.500Z,3952
2017-09-07T15:21:41.484Z,3913
2017-09-07T15:22:11.557Z,3907
2017-09-07T15:22:41.603Z,3917
2017-09-07T15:23:11.584Z,3952
2017-09-07T15:23:41.674Z,4000
2017-09-07T15:24:11.699Z,4025
2017-09-07T15:24:41.717Z,4040
2017-09-07T15:25:11.722Z,4037
2017-09-07T15:25:41.847Z,4057
2017-09-07T15:26:11.744Z,4043
2017-09-07T15:26:41.847Z,4022
2017-09-07T15:27:11.817Z,3977
2017-09-07T15:27:41.925Z,3883
2017-09-07T15:28:11.882Z,3782
2017-09-07T15:28:41.912Z,3647
2017-09-07T15:29:11.944Z,3460
2017-09-07T15:29:41.970Z,3272
2017-09-07T15:30:12.016Z,3058
2017-09-07T15:30:42.096Z,2820
2017-09-07T15:31:12.059Z,2593
2017-09-07T15:31:42.093Z,2380
2017-09-07T15:32:12.137Z,2180
2017-09-07T15:32:42.160Z,1995
2017-09-07T15:33:12.191Z,1810
2017-09-07T15:33:42.268Z,1673
2017-09-07T15:34:12.314Z,1543
2017-09-07T15:34:42.338Z,1430
2017-09-07T15:35:12.422Z,1312
2017-09-07T15:35:42.476Z,1223
2017-09-07T15:36:12.466Z,1160
2017-09-07T15:36:42.478Z,1130
2017-09-07T15:37:12.503Z,1127
2017-09-07T15:37:42.522Z,1157
2017-09-07T15:38:12.588Z,1228
2017-09-07T15:38:42.621Z,1305
2017-09-07T15:39:12.655Z,1412
2017-09-07T15:39:42.682Z,1532
2017-09-07T15:40:12.698Z,1650
2017-09-07T15:40:42.784Z,1760
2017-09-07T15:41:12.761Z,1845
2017-09-07T15:41:42.811Z,1910
2017-09-07T15:42:12.834Z,1950
2017-09-07T15:42:42.879Z,1970
2017-09-07T15:43:12.898Z,1978
2017-09-07T15:43:42.930Z,1985
2017-09-07T15:44:12.968Z,1997
2017-09-07T15:44:42.946Z,2003
2017-09-07T15:45:13.027Z,2008
2017-09-07T15:45:43.111Z,2010
2017-09-07T15:46:13.076Z,2012
2017-09-07T15:46:43.115Z,2017
2017-09-07T15:47:13.139Z,2027
2017-09-07T15:47:43.166Z,2035
2017-09-07T15:48:13.221Z,2055
2017-09-07T15:48:43.250Z,2080
2017-09-07T15:49:13.285Z,2113
2017-09-07T15:49:43.308Z,2147
2017-09-07T15:50:13.329Z,2185
2017-09-07T15:50:43.517Z,2220
2017-09-07T15:51:13.376Z,2250
2017-09-07T15:51:43.438Z,2275
2017-09-07T15:52:13.468Z,2295
2017-09-07T15:52:43.489Z,2308
2017-09-07T15:53:13.540Z,2318
2017-09-07T15:53:43.582Z,2327
2017-09-07T15:54:13.626Z,2338
2017-09-07T15:54:43.626Z,2347
2017-09-07T15:55:13.639Z,2355
2017-09-07T15:55:43.760Z,2357
2017-09-07T15:56:13.668Z,2355
2017-09-07T15:56:43.766Z,2347
2017-09-07T15:57:13.797Z,2338
2017-09-07T15:57:43.763Z,2330
2017-09-07T15:58:13.787Z,2325
2017-09-07T15:59:13.850Z,2327
2017-09-07T15:59:43.889Z,2335
2017-09-07T16:00:44.082Z,2333
2017-09-07T16:01:13.972Z,2327
2017-09-07T16:01:44.111Z,2315
2017-09-07T16:02:14.105Z,2290
2017-09-07T16:02:44.067Z,2252
2017-09-07T16:03:14.109Z,2222
2017-09-07T16:03:44.130Z,2190
2017-09-07T16:04:14.222Z,2175
2017-09-07T16:04:44.184Z,2170
2017-09-07T16:05:14.253Z,2180
2017-09-07T16:05:44.368Z,2197
2017-09-07T16:06:14.277Z,2222
2017-09-07T16:06:44.382Z,2242
2017-09-07T16:07:14.410Z,2260
2017-09-07T16:07:44.471Z,2265
2017-09-07T16:08:14.462Z,2263
2017-09-07T16:08:44.473Z,2252
2017-09-07T16:09:14.497Z,2237
2017-09-07T16:09:44.502Z,2225
2017-09-07T16:10:14.563Z,2220
2017-09-07T16:10:44.881Z,2215
2017-09-07T16:11:14.608Z,2213
2017-09-07T16:11:44.626Z,2207
2017-09-07T16:12:14.706Z,2192
2017-09-07T16:12:44.687Z,2173
2017-09-07T16:13:14.804Z,2143
2017-09-07T16:13:44.833Z,2110
2017-09-07T16:14:14.778Z,2080
2017-09-07T16:14:44.899Z,2053
2017-09-07T16:15:14.845Z,2030
2017-09-07T16:15:45.060Z,2023
2017-09-07T16:16:14.901Z,2035
2017-09-07T16:17:45.102Z,2150
2017-09-07T16:18:15.042Z,2205
2017-09-07T16:18:45.056Z,2260
2017-09-07T16:19:15.090Z,2308
2017-09-07T16:19:45.170Z,2347
2017-09-07T16:20:15.155Z,2370
2017-09-07T16:20:45.265Z,2380
2017-09-07T16:21:15.216Z,2383
2017-09-07T16:21:45.291Z,2372
2017-09-07T16:22:15.305Z,2360
2017-09-07T16:22:45.341Z,2347
2017-09-07T16:23:15.352Z,2340
2017-09-07T16:23:45.401Z,2338
2017-09-07T16:24:15.435Z,2340
2017-09-07T16:24:45.485Z,2342
2017-09-07T16:25:15.495Z,2335
2017-09-07T16:25:45.674Z,2318
2017-09-07T16:26:15.575Z,2290
2017-09-07T16:26:45.567Z,2260
2017-09-07T16:27:15.624Z,2220
2017-09-07T16:27:45.674Z,2173
2017-09-07T16:28:15.662Z,2132
2017-09-07T16:28:45.735Z,2123
2017-09-07T16:29:15.756Z,2145
2017-09-07T16:29:45.771Z,2155
2017-09-07T16:30:15.803Z,2150
2017-09-07T16:31:15.946Z,2153
2017-09-07T16:31:45.898Z,2162
2017-09-07T16:32:15.904Z,2168
2017-09-07T16:33:15.985Z,2160
2017-09-07T16:33:46.025Z,2145
2017-09-07T16:34:16.038Z,2117
2017-09-07T16:34:46.109Z,2092
2017-09-07T16:35:16.140Z,2070
2017-09-07T16:35:46.219Z,2055
2017-09-07T16:36:16.311Z,2040
2017-09-07T16:37:16.243Z,2042
2017-09-07T16:37:46.278Z,2053
2017-09-07T16:38:16.259Z,2057
2017-09-07T16:38:46.378Z,2070
2017-09-07T16:39:16.382Z,2080
2017-09-07T16:39:46.378Z,2083
2017-09-07T16:40:16.434Z,2080
2017-09-07T16:40:46.475Z,2077
2017-09-07T16:41:16.554Z,2068
2017-09-07T16:41:46.509Z,2057
2017-09-07T16:42:16.512Z,2050
2017-09-07T16:42:46.548Z,2048
2017-09-07T16:43:16.570Z,2045
2017-09-07T16:43:46.614Z,2055
2017-09-07T16:44:46.714Z,2045
2017-09-07T16:45:16.762Z,2032
2017-09-07T16:45:46.742Z,2015
2017-09-07T16:46:16.824Z,1987
2017-09-07T16:46:46.837Z,1965
2017-09-07T16:47:16.851Z,1927
2017-09-07T16:47:46.862Z,1883
2017-09-07T16:48:16.900Z,1835
2017-09-07T16:48:46.919Z,1787
2017-09-07T16:49:16.955Z,1750
2017-09-07T16:49:46.990Z,1715
2017-09-07T16:50:17.023Z,1680
2017-09-07T16:50:47.174Z,1640
2017-09-07T16:51:17.127Z,1588
2017-09-07T16:51:47.162Z,1520
2017-09-07T16:52:17.147Z,1463
2017-09-07T16:52:47.165Z,1423
2017-09-07T16:53:17.210Z,1387
2017-09-07T16:53:47.283Z,1352
2017-09-07T16:54:17.315Z,1320
2017-09-07T16:54:47.301Z,1290
2017-09-07T16:55:17.339Z,1268
2017-09-07T16:55:47.373Z,1252
2017-09-07T16:56:17.464Z,1250
2017-09-07T16:56:47.456Z,1247
2017-09-07T16:57:17.468Z,1245
2017-09-07T16:57:47.491Z,1232
2017-09-07T16:58:17.511Z,1210
2017-09-07T16:58:47.599Z,1172
2017-09-07T16:59:17.592Z,1120
2017-09-07T16:59:47.659Z,1065
2017-09-07T17:00:17.684Z,1010
2017-09-07T17:00:47.654Z,967
2017-09-07T17:01:17.795Z,943
2017-09-07T17:01:47.728Z,923
2017-09-07T17:02:17.752Z,908
2017-09-07T17:02:47.782Z,892
2017-09-07T17:03:17.810Z,880
2017-09-07T17:03:47.844Z,868
2017-09-07T17:04:17.886Z,857
2017-09-07T17:04:47.910Z,850
2017-09-07T17:05:17.934Z,845
2017-09-07T17:05:48.047Z,838
2017-09-07T17:06:18.082Z,830
2017-09-07T17:06:48.065Z,825
2017-09-07T17:07:18.080Z,823
2017-09-07T17:07:48.174Z,820
2017-09-07T17:08:48.191Z,815
2017-09-07T17:09:18.733Z,812
2017-09-07T17:09:48.319Z,810
2017-09-07T17:11:18.405Z,812
2017-09-07T17:11:48.376Z,817
2017-09-07T17:12:18.446Z,823
2017-09-07T17:12:48.444Z,827
2017-09-07T17:13:18.539Z,830
2017-09-07T17:14:18.600Z,825
2017-09-07T17:14:48.616Z,823
2017-09-07T17:15:18.636Z,815
2017-09-07T17:15:48.694Z,810
2017-09-07T17:16:18.963Z,802
2017-09-07T17:16:48.746Z,800
2017-09-07T17:17:48.824Z,805
2017-09-07T17:18:18.790Z,812
2017-09-07T17:18:48.879Z,827
2017-09-07T17:19:18.834Z,845
2017-09-07T17:19:48.898Z,863
2017-09-07T17:20:18.970Z,880
2017-09-07T17:20:49.052Z,895
2017-09-07T17:21:19.141Z,910
2017-09-07T17:21:49.050Z,928
2017-09-07T17:22:19.047Z,947
2017-09-07T17:22:49.118Z,960
2017-09-07T17:23:19.132Z,970
2017-09-07T17:23:49.160Z,983
2017-09-07T17:24:19.171Z,990
2017-09-07T17:24:49.281Z,998
2017-09-07T17:25:19.300Z,1007
2017-09-07T17:25:49.328Z,1015
2017-09-07T17:26:19.426Z,1018
2017-09-07T17:26:49.401Z,1015
2017-09-07T17:27:19.452Z,1005
2017-09-07T17:27:49.507Z,988
2017-09-07T17:28:19.494Z,962
2017-09-07T17:28:49.531Z,930
2017-09-07T17:29:19.561Z,892
2017-09-07T17:29:49.535Z,850
2017-09-07T17:30:19.642Z,805
2017-09-07T17:30:49.587Z,765
2017-09-07T17:31:19.743Z,725
2017-09-07T17:31:49.707Z,688
2017-09-07T17:32:19.687Z,655
2017-09-07T17:32:49.709Z,630
2017-09-07T17:33:19.758Z,605
2017-09-07T17:33:49.820Z,587
2017-09-07T17:34:19.825Z,570
2017-09-07T17:34:49.830Z,557
2017-09-07T17:35:19.879Z,545
2017-09-07T17:35:50.019Z,533
2017-09-07T17:36:19.985Z,520
2017-09-07T17:36:49.961Z,508
2017-09-07T17:37:19.990Z,493
2017-09-07T17:37:50.017Z,480
2017-09-07T17:38:20.048Z,465
2017-09-07T17:38:50.079Z,448
2017-09-07T17:39:20.122Z,430
2017-09-07T17:39:50.140Z,410
2017-09-07T17:40:20.235Z,395
2017-09-07T17:40:50.200Z,377
2017-09-07T17:41:20.323Z,362
2017-09-07T17:41:50.297Z,350
2017-09-07T17:42:20.305Z,335
2017-09-07T17:42:50.386Z,322
2017-09-07T17:43:20.384Z,313
2017-09-07T17:43:50.445Z,300
2017-09-07T17:44:20.483Z,287
2017-09-07T17:44:50.529Z,275
2017-09-07T17:45:20.563Z,265
2017-09-07T17:45:50.568Z,255
2017-09-07T17:46:20.675Z,242
2017-09-07T17:46:50.613Z,230
2017-09-07T17:47:20.605Z,220
2017-09-07T17:47:50.675Z,208
2017-09-07T17:48:20.728Z,197
2017-09-07T17:48:50.695Z,187
2017-09-07T17:49:20.838Z,180
2017-09-07T17:49:50.817Z,172
2017-09-07T17:50:20.778Z,165
2017-09-07T17:50:50.922Z,160
2017-09-07T17:51:20.897Z,155
2017-09-07T17:51:50.940Z,150
2017-09-07T17:52:20.902Z,142
2017-09-07T17:52:50.934Z,137
2017-09-07T17:53:21.032Z,130
2017-09-07T17:53:51.000Z,125
2017-09-07T17:54:21.044Z,120
2017-09-07T17:54:51.057Z,112
2017-09-07T17:55:21.153Z,107
2017-09-07T17:55:51.122Z,103
2017-09-07T17:56:21.269Z,98
2017-09-07T17:56:51.245Z,92
2017-09-07T17:57:21.265Z,88
2017-09-07T17:57:51.269Z,83
2017-09-07T17:58:21.337Z,77
2017-09-07T17:58:51.303Z,73
2017-09-07T17:59:21.406Z,67
2017-09-07T17:59:51.366Z,62
2017-09-07T18:00:21.422Z,60
2017-09-07T18:00:51.502Z,55
2017-09-07T18:01:21.589Z,52
2017-09-07T18:01:51.563Z,47
2017-09-07T18:02:21.592Z,45
2017-09-07T18:02:51.567Z,43
2017-09-07T18:03:21.632Z,40
2017-09-07T18:03:51.664Z,37
2017-09-07T18:04:21.718Z,35
2017-09-07T18:04:51.684Z,32
2017-09-07T18:05:22.358Z,30
2017-09-07T18:05:51.922Z,28
2017-09-07T18:06:21.889Z,25
2017-09-07T18:06:51.861Z,22
2017-09-07T18:07:51.924Z,20
2017-09-07T18:08:21.952Z,17
2017-09-07T18:09:21.995Z,15
2017-09-07T18:10:22.075Z,13
2017-09-07T18:11:52.192Z,10
2017-09-07T18:12:52.201Z,8
2017-09-07T18:15:22.383Z,5
2017-09-07T18:18:22.616Z,2
2017-09-07T18:25:23.018Z,0
2017-09-07T19:23:26.786Z,0
